sensor_id;sensor_type;location;lat;lon;timestamp;temperature;humidity
15003;DHT22;7597;53.590;10.020;2022-11-11T00:01:35;11.80;1.00
15003;DHT22;7597;53.590;10.020;2022-11-11T00:04:03;11.80;1.00
15003;DHT22;7597;53.590;10.020;2022-11-11T00:06:29;11.80;1.00
15003;DHT22;7597;53.590;10.020;2022-11-11T00:08:57;11.80;1.00
15003;DHT22;7597;53.590;10.020;2022-11-11T00:11:24;11.80;1.00
15003;DHT22;7597;53.590;10.020;2022-11-11T00:13:50;11.80;1.00
15003;DHT22;7597;53.590;10.020;2022-11-11T00:16:18;11.80;1.00
15003;DHT22;7597;53.590;10.020;2022-11-11T00:18:44;11.80;1.00
15003;DHT22;7597;53.590;10.020;2022-11-11T00:21:16;11.80;1.00
15003;DHT22;7597;53.590;10.020;2022-11-11T00:23:48;11.80;1.00
15003;DHT22;7597;53.590;10.020;2022-11-11T00:26:21;11.80;1.00
15003;DHT22;7597;53.590;10.020;2022-11-11T00:28:47;11.80;1.00
15003;DHT22;7597;53.590;10.020;2022-11-11T00:31:14;11.80;1.00
15003;DHT22;7597;53.590;10.020;2022-11-11T00:33:40;11.80;1.00
15003;DHT22;7597;53.590;10.020;2022-11-11T00:36:07;11.80;1.00
15003;DHT22;7597;53.590;10.020;2022-11-11T00:38:35;11.90;1.00
15003;DHT22;7597;53.590;10.020;2022-11-11T00:41:07;11.80;1.00
15003;DHT22;7597;53.590;10.020;2022-11-11T00:43:34;11.90;1.00
15003;DHT22;7597;53.590;10.020;2022-11-11T00:46:00;11.90;1.00
15003;DHT22;7597;53.590;10.020;2022-11-11T00:48:32;11.90;1.00
15003;DHT22;7597;53.590;10.020;2022-11-11T00:51:05;11.90;1.00
15003;DHT22;7597;53.590;10.020;2022-11-11T00:53:31;12.00;1.00
15003;DHT22;7597;53.590;10.020;2022-11-11T00:55:58;12.00;1.00
15003;DHT22;7597;53.590;10.020;2022-11-11T00:58:25;12.00;1.00
15003;DHT22;7597;53.590;10.020;2022-11-11T01:00:51;12.00;1.00
15003;DHT22;7597;53.590;10.020;2022-11-11T01:03:18;12.00;1.00
15003;DHT22;7597;53.590;10.020;2022-11-11T01:05:45;12.10;1.00
15003;DHT22;7597;53.590;10.020;2022-11-11T01:08:14;12.10;1.00
15003;DHT22;7597;53.590;10.020;2022-11-11T01:10:42;12.10;1.00
15003;DHT22;7597;53.590;10.020;2022-11-11T01:13:15;12.10;1.00
15003;DHT22;7597;53.590;10.020;2022-11-11T01:15:41;12.10;1.00
15003;DHT22;7597;53.590;10.020;2022-11-11T01:18:07;12.20;1.00
15003;DHT22;7597;53.590;10.020;2022-11-11T01:20:34;12.10;1.00
15003;DHT22;7597;53.590;10.020;2022-11-11T01:23:02;12.20;1.00
15003;DHT22;7597;53.590;10.020;2022-11-11T01:25:28;12.20;1.00
15003;DHT22;7597;53.590;10.020;2022-11-11T01:27:54;12.20;1.00
15003;DHT22;7597;53.590;10.020;2022-11-11T01:30:21;12.20;1.00
15003;DHT22;7597;53.590;10.020;2022-11-11T01:32:48;12.30;1.00
15003;DHT22;7597;53.590;10.020;2022-11-11T01:35:14;12.30;1.00
15003;DHT22;7597;53.590;10.020;2022-11-11T01:37:41;12.30;1.00
15003;DHT22;7597;53.590;10.020;2022-11-11T01:40:08;12.30;1.00
15003;DHT22;7597;53.590;10.020;2022-11-11T01:42:47;12.30;1.00
15003;DHT22;7597;53.590;10.020;2022-11-11T01:47:51;12.30;1.00
15003;DHT22;7597;53.590;10.020;2022-11-11T01:50:23;12.30;1.00
15003;DHT22;7597;53.590;10.020;2022-11-11T01:52:50;12.30;1.00
15003;DHT22;7597;53.590;10.020;2022-11-11T01:55:18;12.30;1.00
15003;DHT22;7597;53.590;10.020;2022-11-11T01:57:47;12.30;1.00
15003;DHT22;7597;53.590;10.020;2022-11-11T02:00:14;12.30;1.00
15003;DHT22;7597;53.590;10.020;2022-11-11T02:03:17;12.30;1.00
15003;DHT22;7597;53.590;10.020;2022-11-11T02:05:27;12.30;1.00
15003;DHT22;7597;53.590;10.020;2022-11-11T02:08:02;12.30;1.00
15003;DHT22;7597;53.590;10.020;2022-11-11T02:10:27;12.20;1.00
15003;DHT22;7597;53.590;10.020;2022-11-11T02:12:54;12.20;1.00
15003;DHT22;7597;53.590;10.020;2022-11-11T02:15:26;12.20;1.00
15003;DHT22;7597;53.590;10.020;2022-11-11T02:17:53;12.20;1.00
15003;DHT22;7597;53.590;10.020;2022-11-11T02:20:24;12.20;1.00
15003;DHT22;7597;53.590;10.020;2022-11-11T02:22:50;12.20;1.00
15003;DHT22;7597;53.590;10.020;2022-11-11T02:25:16;12.20;1.00
15003;DHT22;7597;53.590;10.020;2022-11-11T02:27:42;12.10;1.00
15003;DHT22;7597;53.590;10.020;2022-11-11T02:30:09;12.10;1.00
15003;DHT22;7597;53.590;10.020;2022-11-11T02:32:35;12.10;1.00
15003;DHT22;7597;53.590;10.020;2022-11-11T02:35:07;12.10;1.00
15003;DHT22;7597;53.590;10.020;2022-11-11T02:37:29;12.10;1.00
15003;DHT22;7597;53.590;10.020;2022-11-11T02:39:57;12.00;1.00
15003;DHT22;7597;53.590;10.020;2022-11-11T02:42:22;12.00;1.00
15003;DHT22;7597;53.590;10.020;2022-11-11T02:44:49;11.90;1.00
15003;DHT22;7597;53.590;10.020;2022-11-11T02:47:15;11.90;1.00
15003;DHT22;7597;53.590;10.020;2022-11-11T02:49:42;11.90;1.00
15003;DHT22;7597;53.590;10.020;2022-11-11T02:52:08;11.80;1.00
15003;DHT22;7597;53.590;10.020;2022-11-11T02:54:35;11.80;1.00
15003;DHT22;7597;53.590;10.020;2022-11-11T02:57:02;11.80;1.00
15003;DHT22;7597;53.590;10.020;2022-11-11T02:59:34;11.80;1.00
15003;DHT22;7597;53.590;10.020;2022-11-11T03:02:00;11.70;1.00
15003;DHT22;7597;53.590;10.020;2022-11-11T03:04:26;11.70;1.00
15003;DHT22;7597;53.590;10.020;2022-11-11T03:06:53;11.70;1.00
15003;DHT22;7597;53.590;10.020;2022-11-11T03:09:20;11.70;1.00
15003;DHT22;7597;53.590;10.020;2022-11-11T03:11:47;11.60;1.00
15003;DHT22;7597;53.590;10.020;2022-11-11T03:14:14;11.60;1.00
15003;DHT22;7597;53.590;10.020;2022-11-11T03:16:40;11.60;1.00
15003;DHT22;7597;53.590;10.020;2022-11-11T03:19:13;11.60;1.00
15003;DHT22;7597;53.590;10.020;2022-11-11T03:21:39;11.60;1.00
15003;DHT22;7597;53.590;10.020;2022-11-11T03:24:06;11.60;1.00
15003;DHT22;7597;53.590;10.020;2022-11-11T03:26:33;11.60;1.00
15003;DHT22;7597;53.590;10.020;2022-11-11T03:28:59;11.50;1.00
15003;DHT22;7597;53.590;10.020;2022-11-11T03:31:26;11.50;1.00
15003;DHT22;7597;53.590;10.020;2022-11-11T03:33:53;11.50;1.00
15003;DHT22;7597;53.590;10.020;2022-11-11T03:36:19;11.50;1.00
15003;DHT22;7597;53.590;10.020;2022-11-11T03:38:46;11.40;1.00
15003;DHT22;7597;53.590;10.020;2022-11-11T03:41:13;11.40;1.00
15003;DHT22;7597;53.590;10.020;2022-11-11T03:43:39;11.40;1.00
15003;DHT22;7597;53.590;10.020;2022-11-11T03:46:06;11.40;1.00
15003;DHT22;7597;53.590;10.020;2022-11-11T03:48:33;11.30;1.00
15003;DHT22;7597;53.590;10.020;2022-11-11T03:51:00;11.30;1.00
15003;DHT22;7597;53.590;10.020;2022-11-11T03:53:27;11.30;1.00
15003;DHT22;7597;53.590;10.020;2022-11-11T03:55:54;11.30;1.00
15003;DHT22;7597;53.590;10.020;2022-11-11T03:58:20;11.30;1.00
15003;DHT22;7597;53.590;10.020;2022-11-11T04:00:47;11.20;1.00
15003;DHT22;7597;53.590;10.020;2022-11-11T04:03:14;11.20;1.00
15003;DHT22;7597;53.590;10.020;2022-11-11T04:05:46;11.20;1.00
15003;DHT22;7597;53.590;10.020;2022-11-11T04:08:19;11.20;1.00
15003;DHT22;7597;53.590;10.020;2022-11-11T04:10:51;11.20;1.00
15003;DHT22;7597;53.590;10.020;2022-11-11T04:13:17;11.20;1.00
15003;DHT22;7597;53.590;10.020;2022-11-11T04:15:50;11.10;1.00
15003;DHT22;7597;53.590;10.020;2022-11-11T04:18:22;11.10;1.00
15003;DHT22;7597;53.590;10.020;2022-11-11T04:20:49;11.20;1.00
15003;DHT22;7597;53.590;10.020;2022-11-11T04:23:21;11.10;1.00
15003;DHT22;7597;53.590;10.020;2022-11-11T04:25:48;11.10;1.00
15003;DHT22;7597;53.590;10.020;2022-11-11T04:28:15;11.10;1.00
15003;DHT22;7597;53.590;10.020;2022-11-11T04:30:47;11.00;1.00
15003;DHT22;7597;53.590;10.020;2022-11-11T04:33:14;11.10;1.00
15003;DHT22;7597;53.590;10.020;2022-11-11T04:35:40;11.00;1.00
15003;DHT22;7597;53.590;10.020;2022-11-11T04:38:07;11.00;1.00
15003;DHT22;7597;53.590;10.020;2022-11-11T04:40:39;11.00;1.00
15003;DHT22;7597;53.590;10.020;2022-11-11T04:43:11;11.00;1.00
15003;DHT22;7597;53.590;10.020;2022-11-11T04:45:38;11.00;1.00
15003;DHT22;7597;53.590;10.020;2022-11-11T04:48:07;10.90;1.00
15003;DHT22;7597;53.590;10.020;2022-11-11T04:50:37;11.00;1.00
15003;DHT22;7597;53.590;10.020;2022-11-11T04:53:04;10.90;1.00
15003;DHT22;7597;53.590;10.020;2022-11-11T04:55:30;10.90;1.00
15003;DHT22;7597;53.590;10.020;2022-11-11T04:58:02;10.90;1.00
15003;DHT22;7597;53.590;10.020;2022-11-11T05:00:29;10.90;1.00
15003;DHT22;7597;53.590;10.020;2022-11-11T05:02:55;10.90;1.00
15003;DHT22;7597;53.590;10.020;2022-11-11T05:05:29;10.80;1.00
15003;DHT22;7597;53.590;10.020;2022-11-11T05:07:55;10.80;1.00
15003;DHT22;7597;53.590;10.020;2022-11-11T05:10:27;10.80;1.00
15003;DHT22;7597;53.590;10.020;2022-11-11T05:12:54;10.80;1.00
15003;DHT22;7597;53.590;10.020;2022-11-11T05:15:21;10.80;1.00
15003;DHT22;7597;53.590;10.020;2022-11-11T05:17:53;10.80;1.00
15003;DHT22;7597;53.590;10.020;2022-11-11T05:20:36;10.80;1.00
15003;DHT22;7597;53.590;10.020;2022-11-11T05:23:22;10.70;1.00
15003;DHT22;7597;53.590;10.020;2022-11-11T05:25:48;10.70;1.00
15003;DHT22;7597;53.590;10.020;2022-11-11T05:28:15;10.70;1.00
15003;DHT22;7597;53.590;10.020;2022-11-11T05:30:43;10.70;1.00
15003;DHT22;7597;53.590;10.020;2022-11-11T05:33:10;10.70;1.00
15003;DHT22;7597;53.590;10.020;2022-11-11T05:35:37;10.70;1.00
15003;DHT22;7597;53.590;10.020;2022-11-11T05:38:03;10.60;1.00
15003;DHT22;7597;53.590;10.020;2022-11-11T05:40:35;10.70;1.00
15003;DHT22;7597;53.590;10.020;2022-11-11T05:43:02;10.70;1.00
15003;DHT22;7597;53.590;10.020;2022-11-11T05:45:29;10.60;1.00
15003;DHT22;7597;53.590;10.020;2022-11-11T05:47:59;10.60;1.00
15003;DHT22;7597;53.590;10.020;2022-11-11T05:50:22;10.60;1.00
15003;DHT22;7597;53.590;10.020;2022-11-11T05:52:49;9.80;1.00
15003;DHT22;7597;53.590;10.020;2022-11-11T05:55:15;10.60;1.00
15003;DHT22;7597;53.590;10.020;2022-11-11T05:57:43;10.60;1.00
15003;DHT22;7597;53.590;10.020;2022-11-11T06:00:10;10.60;1.00
15003;DHT22;7597;53.590;10.020;2022-11-11T06:02:37;10.60;1.00
15003;DHT22;7597;53.590;10.020;2022-11-11T06:05:04;10.60;1.00
15003;DHT22;7597;53.590;10.020;2022-11-11T06:07:30;10.60;1.00
15003;DHT22;7597;53.590;10.020;2022-11-11T06:09:57;10.60;1.00
15003;DHT22;7597;53.590;10.020;2022-11-11T06:12:24;10.60;1.00
15003;DHT22;7597;53.590;10.020;2022-11-11T06:14:50;10.60;1.00
15003;DHT22;7597;53.590;10.020;2022-11-11T06:17:18;10.60;1.00
15003;DHT22;7597;53.590;10.020;2022-11-11T06:19:45;10.60;1.00
15003;DHT22;7597;53.590;10.020;2022-11-11T06:22:11;10.60;1.00
15003;DHT22;7597;53.590;10.020;2022-11-11T06:24:38;10.60;1.00
15003;DHT22;7597;53.590;10.020;2022-11-11T06:27:05;10.60;1.00
15003;DHT22;7597;53.590;10.020;2022-11-11T06:29:32;10.60;1.00
15003;DHT22;7597;53.590;10.020;2022-11-11T06:31:59;10.60;1.00
15003;DHT22;7597;53.590;10.020;2022-11-11T06:34:26;10.60;1.00
15003;DHT22;7597;53.590;10.020;2022-11-11T06:36:52;10.60;1.00
15003;DHT22;7597;53.590;10.020;2022-11-11T06:39:19;10.60;1.00
15003;DHT22;7597;53.590;10.020;2022-11-11T06:41:46;10.60;1.00
15003;DHT22;7597;53.590;10.020;2022-11-11T06:44:12;10.60;1.00
15003;DHT22;7597;53.590;10.020;2022-11-11T06:46:39;10.60;1.00
15003;DHT22;7597;53.590;10.020;2022-11-11T06:49:07;10.60;1.00
15003;DHT22;7597;53.590;10.020;2022-11-11T06:51:34;10.60;1.00
15003;DHT22;7597;53.590;10.020;2022-11-11T06:54:02;10.60;1.00
15003;DHT22;7597;53.590;10.020;2022-11-11T06:56:30;10.50;1.00
15003;DHT22;7597;53.590;10.020;2022-11-11T06:58:57;10.60;1.00
15003;DHT22;7597;53.590;10.020;2022-11-11T07:01:23;10.50;1.00
15003;DHT22;7597;53.590;10.020;2022-11-11T07:03:50;10.50;1.00
15003;DHT22;7597;53.590;10.020;2022-11-11T07:06:17;10.50;1.00
15003;DHT22;7597;53.590;10.020;2022-11-11T07:11:26;10.40;1.00
15003;DHT22;7597;53.590;10.020;2022-11-11T07:13:52;10.40;1.00
15003;DHT22;7597;53.590;10.020;2022-11-11T07:16:19;10.80;1.00
15003;DHT22;7597;53.590;10.020;2022-11-11T07:18:46;10.40;1.00
15003;DHT22;7597;53.590;10.020;2022-11-11T07:21:12;10.40;1.00
15003;DHT22;7597;53.590;10.020;2022-11-11T07:23:39;10.40;1.00
15003;DHT22;7597;53.590;10.020;2022-11-11T07:26:06;10.40;1.00
15003;DHT22;7597;53.590;10.020;2022-11-11T07:28:33;10.30;1.00
15003;DHT22;7597;53.590;10.020;2022-11-11T07:31:00;10.30;1.00
15003;DHT22;7597;53.590;10.020;2022-11-11T07:33:27;10.30;1.00
15003;DHT22;7597;53.590;10.020;2022-11-11T07:35:53;10.40;1.00
15003;DHT22;7597;53.590;10.020;2022-11-11T07:38:20;10.40;1.00
15003;DHT22;7597;53.590;10.020;2022-11-11T07:40:47;10.40;1.00
15003;DHT22;7597;53.590;10.020;2022-11-11T07:43:14;10.40;1.00
15003;DHT22;7597;53.590;10.020;2022-11-11T07:45:41;10.40;1.00
15003;DHT22;7597;53.590;10.020;2022-11-11T07:48:07;10.40;1.00
15003;DHT22;7597;53.590;10.020;2022-11-11T07:50:34;10.40;1.00
15003;DHT22;7597;53.590;10.020;2022-11-11T07:53:00;10.30;1.00
15003;DHT22;7597;53.590;10.020;2022-11-11T07:55:27;10.40;1.00
15003;DHT22;7597;53.590;10.020;2022-11-11T07:57:54;10.40;1.00
15003;DHT22;7597;53.590;10.020;2022-11-11T08:00:21;10.40;1.00
15003;DHT22;7597;53.590;10.020;2022-11-11T08:02:47;10.40;1.00
15003;DHT22;7597;53.590;10.020;2022-11-11T08:05:14;10.40;1.00
15003;DHT22;7597;53.590;10.020;2022-11-11T08:07:41;10.40;1.00
15003;DHT22;7597;53.590;10.020;2022-11-11T08:10:08;10.40;1.00
15003;DHT22;7597;53.590;10.020;2022-11-11T08:12:35;10.40;1.00
15003;DHT22;7597;53.590;10.020;2022-11-11T08:15:09;10.40;1.00
15003;DHT22;7597;53.590;10.020;2022-11-11T08:17:36;10.40;1.00
15003;DHT22;7597;53.590;10.020;2022-11-11T08:20:02;10.40;1.00
15003;DHT22;7597;53.590;10.020;2022-11-11T08:22:34;10.50;1.00
15003;DHT22;7597;53.590;10.020;2022-11-11T08:24:56;10.50;1.00
15003;DHT22;7597;53.590;10.020;2022-11-11T08:27:22;10.40;1.00
15003;DHT22;7597;53.590;10.020;2022-11-11T08:29:49;10.40;1.00
15003;DHT22;7597;53.590;10.020;2022-11-11T08:32:16;10.50;1.00
15003;DHT22;7597;53.590;10.020;2022-11-11T08:34:43;10.40;1.00
15003;DHT22;7597;53.590;10.020;2022-11-11T08:37:09;10.50;1.00
15003;DHT22;7597;53.590;10.020;2022-11-11T08:39:36;10.50;1.00
15003;DHT22;7597;53.590;10.020;2022-11-11T08:42:03;10.50;1.00
15003;DHT22;7597;53.590;10.020;2022-11-11T08:44:30;10.50;1.00
15003;DHT22;7597;53.590;10.020;2022-11-11T08:46:57;10.50;1.00
15003;DHT22;7597;53.590;10.020;2022-11-11T08:49:24;10.50;1.00
15003;DHT22;7597;53.590;10.020;2022-11-11T08:51:50;10.60;1.00
15003;DHT22;7597;53.590;10.020;2022-11-11T08:54:18;10.60;1.00
15003;DHT22;7597;53.590;10.020;2022-11-11T08:56:45;10.70;1.00
15003;DHT22;7597;53.590;10.020;2022-11-11T08:59:12;10.70;1.00
15003;DHT22;7597;53.590;10.020;2022-11-11T09:01:39;10.70;1.00
15003;DHT22;7597;53.590;10.020;2022-11-11T09:04:07;10.80;1.00
15003;DHT22;7597;53.590;10.020;2022-11-11T09:06:34;10.80;1.00
15003;DHT22;7597;53.590;10.020;2022-11-11T09:09:01;10.80;1.00
15003;DHT22;7597;53.590;10.020;2022-11-11T09:11:28;10.80;1.00
15003;DHT22;7597;53.590;10.020;2022-11-11T09:13:55;10.80;1.00
15003;DHT22;7597;53.590;10.020;2022-11-11T09:16:21;10.80;1.00
15003;DHT22;7597;53.590;10.020;2022-11-11T09:18:49;10.80;1.00
15003;DHT22;7597;53.590;10.020;2022-11-11T09:21:16;10.80;1.00
15003;DHT22;7597;53.590;10.020;2022-11-11T09:23:43;10.80;1.00
15003;DHT22;7597;53.590;10.020;2022-11-11T09:26:10;10.80;1.00
15003;DHT22;7597;53.590;10.020;2022-11-11T09:28:37;10.90;1.00
15003;DHT22;7597;53.590;10.020;2022-11-11T09:31:05;10.90;1.00
15003;DHT22;7597;53.590;10.020;2022-11-11T09:33:31;10.90;1.00
15003;DHT22;7597;53.590;10.020;2022-11-11T09:35:58;10.90;1.00
15003;DHT22;7597;53.590;10.020;2022-11-11T09:38:25;10.90;1.00
15003;DHT22;7597;53.590;10.020;2022-11-11T09:41:09;10.90;1.00
15003;DHT22;7597;53.590;10.020;2022-11-11T09:43:35;10.90;1.00
15003;DHT22;7597;53.590;10.020;2022-11-11T09:46:09;10.90;1.00
15003;DHT22;7597;53.590;10.020;2022-11-11T09:48:45;11.00;1.00
15003;DHT22;7597;53.590;10.020;2022-11-11T09:51:08;11.00;1.00
15003;DHT22;7597;53.590;10.020;2022-11-11T09:53:35;11.00;1.00
15003;DHT22;7597;53.590;10.020;2022-11-11T09:56:02;11.00;1.00
15003;DHT22;7597;53.590;10.020;2022-11-11T09:58:31;11.30;1.00
15003;DHT22;7597;53.590;10.020;2022-11-11T10:01:09;11.00;1.00
15003;DHT22;7597;53.590;10.020;2022-11-11T10:03:35;11.00;1.00
15003;DHT22;7597;53.590;10.020;2022-11-11T10:06:18;11.00;1.00
15003;DHT22;7597;53.590;10.020;2022-11-11T10:08:47;11.00;1.00
15003;DHT22;7597;53.590;10.020;2022-11-11T10:11:17;11.00;1.00
15003;DHT22;7597;53.590;10.020;2022-11-11T10:13:41;11.10;1.00
15003;DHT22;7597;53.590;10.020;2022-11-11T10:16:19;11.10;1.00
15003;DHT22;7597;53.590;10.020;2022-11-11T10:19:16;11.20;1.00
15003;DHT22;7597;53.590;10.020;2022-11-11T10:21:50;11.20;1.00
15003;DHT22;7597;53.590;10.020;2022-11-11T10:24:17;11.20;1.00
15003;DHT22;7597;53.590;10.020;2022-11-11T10:26:43;11.20;1.00
15003;DHT22;7597;53.590;10.020;2022-11-11T10:29:18;11.20;1.00
15003;DHT22;7597;53.590;10.020;2022-11-11T10:31:53;11.20;1.00
15003;DHT22;7597;53.590;10.020;2022-11-11T10:34:15;11.30;1.00
15003;DHT22;7597;53.590;10.020;2022-11-11T10:36:44;11.30;1.00
15003;DHT22;7597;53.590;10.020;2022-11-11T10:39:10;11.30;1.00
15003;DHT22;7597;53.590;10.020;2022-11-11T10:41:38;11.30;1.00
15003;DHT22;7597;53.590;10.020;2022-11-11T10:46:42;11.10;1.00
15003;DHT22;7597;53.590;10.020;2022-11-11T10:49:11;11.40;1.00
15003;DHT22;7597;53.590;10.020;2022-11-11T10:51:41;11.40;1.00
15003;DHT22;7597;53.590;10.020;2022-11-11T10:54:15;11.40;1.00
15003;DHT22;7597;53.590;10.020;2022-11-11T10:56:44;11.40;1.00
15003;DHT22;7597;53.590;10.020;2022-11-11T10:59:46;11.40;1.00
15003;DHT22;7597;53.590;10.020;2022-11-11T11:01:56;11.50;1.00
15003;DHT22;7597;53.590;10.020;2022-11-11T11:04:32;11.50;1.00
15003;DHT22;7597;53.590;10.020;2022-11-11T11:07:00;11.50;1.00
15003;DHT22;7597;53.590;10.020;2022-11-11T11:09:35;11.60;1.00
15003;DHT22;7597;53.590;10.020;2022-11-11T11:12:00;11.60;1.00
15003;DHT22;7597;53.590;10.020;2022-11-11T11:14:29;11.60;1.00
15003;DHT22;7597;53.590;10.020;2022-11-11T11:16:55;11.50;1.00
15003;DHT22;7597;53.590;10.020;2022-11-11T11:19:23;11.50;1.00
15003;DHT22;7597;53.590;10.020;2022-11-11T11:21:52;11.50;1.00
15003;DHT22;7597;53.590;10.020;2022-11-11T11:24:18;11.50;1.00
15003;DHT22;7597;53.590;10.020;2022-11-11T11:26:45;11.60;1.00
15003;DHT22;7597;53.590;10.020;2022-11-11T11:29:12;11.50;1.00
15003;DHT22;7597;53.590;10.020;2022-11-11T11:31:39;11.50;1.00
15003;DHT22;7597;53.590;10.020;2022-11-11T11:34:05;11.50;1.00
15003;DHT22;7597;53.590;10.020;2022-11-11T11:36:32;11.60;1.00
15003;DHT22;7597;53.590;10.020;2022-11-11T11:39:01;11.60;1.00
15003;DHT22;7597;53.590;10.020;2022-11-11T11:41:39;11.60;1.00
15003;DHT22;7597;53.590;10.020;2022-11-11T11:46:43;11.60;1.00
15003;DHT22;7597;53.590;10.020;2022-11-11T11:50:30;11.70;1.00
15003;DHT22;7597;53.590;10.020;2022-11-11T11:52:06;11.70;1.00
15003;DHT22;7597;53.590;10.020;2022-11-11T11:54:47;11.60;1.00
15003;DHT22;7597;53.590;10.020;2022-11-11T11:57:59;11.60;1.00
15003;DHT22;7597;53.590;10.020;2022-11-11T12:00:21;11.70;1.00
15003;DHT22;7597;53.590;10.020;2022-11-11T12:03:05;11.70;1.00
15003;DHT22;7597;53.590;10.020;2022-11-11T12:05:33;11.70;1.00
15003;DHT22;7597;53.590;10.020;2022-11-11T12:08:18;11.60;1.00
15003;DHT22;7597;53.590;10.020;2022-11-11T12:10:48;11.60;1.00
15003;DHT22;7597;53.590;10.020;2022-11-11T12:13:24;11.60;1.00
15003;DHT22;7597;53.590;10.020;2022-11-11T12:15:55;11.60;1.00
15003;DHT22;7597;53.590;10.020;2022-11-11T12:18:39;11.60;1.00
15003;DHT22;7597;53.590;10.020;2022-11-11T12:21:12;11.60;1.00
15003;DHT22;7597;53.590;10.020;2022-11-11T12:23:42;11.50;1.00
15003;DHT22;7597;53.590;10.020;2022-11-11T12:26:15;11.50;1.00
15003;DHT22;7597;53.590;10.020;2022-11-11T12:31:21;11.70;1.00
15003;DHT22;7597;53.590;10.020;2022-11-11T12:36:43;11.40;1.00
15003;DHT22;7597;53.590;10.020;2022-11-11T12:40:34;11.50;1.00
15003;DHT22;7597;53.590;10.020;2022-11-11T12:42:20;11.40;1.00
15003;DHT22;7597;53.590;10.020;2022-11-11T12:45:17;11.40;1.00
15003;DHT22;7597;53.590;10.020;2022-11-11T12:50:21;11.40;1.00
15003;DHT22;7597;53.590;10.020;2022-11-11T12:53:05;11.50;1.00
15003;DHT22;7597;53.590;10.020;2022-11-11T12:58:37;11.40;1.00
15003;DHT22;7597;53.590;10.020;2022-11-11T13:01:12;11.40;1.00
15003;DHT22;7597;53.590;10.020;2022-11-11T13:03:55;11.40;1.00
15003;DHT22;7597;53.590;10.020;2022-11-11T13:09:18;11.50;1.00
15003;DHT22;7597;53.590;10.020;2022-11-11T13:12:05;11.50;1.00
15003;DHT22;7597;53.590;10.020;2022-11-11T13:14:39;11.50;1.00
15003;DHT22;7597;53.590;10.020;2022-11-11T13:17:03;11.50;1.00
15003;DHT22;7597;53.590;10.020;2022-11-11T13:19:32;11.60;1.00
15003;DHT22;7597;53.590;10.020;2022-11-11T13:22:02;11.50;1.00
15003;DHT22;7597;53.590;10.020;2022-11-11T13:24:28;11.50;1.00
15003;DHT22;7597;53.590;10.020;2022-11-11T13:26:58;11.50;1.00
15003;DHT22;7597;53.590;10.020;2022-11-11T13:30:06;11.50;1.00
15003;DHT22;7597;53.590;10.020;2022-11-11T13:32:16;11.60;1.00
15003;DHT22;7597;53.590;10.020;2022-11-11T13:34:42;11.60;1.00
15003;DHT22;7597;53.590;10.020;2022-11-11T13:37:15;11.60;1.00
15003;DHT22;7597;53.590;10.020;2022-11-11T13:39:40;11.60;1.00
15003;DHT22;7597;53.590;10.020;2022-11-11T13:42:06;11.60;1.00
15003;DHT22;7597;53.590;10.020;2022-11-11T13:44:35;11.60;1.00
15003;DHT22;7597;53.590;10.020;2022-11-11T13:47:03;11.60;1.00
15003;DHT22;7597;53.590;10.020;2022-11-11T13:49:33;11.70;1.00
15003;DHT22;7597;53.590;10.020;2022-11-11T13:52:01;11.70;1.00
15003;DHT22;7597;53.590;10.020;2022-11-11T13:54:32;11.70;1.00
15003;DHT22;7597;53.590;10.020;2022-11-11T13:57:02;11.70;1.00
15003;DHT22;7597;53.590;10.020;2022-11-11T13:59:28;11.80;1.00
15003;DHT22;7597;53.590;10.020;2022-11-11T14:02:11;11.80;1.00
15003;DHT22;7597;53.590;10.020;2022-11-11T14:05:17;11.80;1.00
15003;DHT22;7597;53.590;10.020;2022-11-11T14:07:46;11.80;1.00
15003;DHT22;7597;53.590;10.020;2022-11-11T14:10:48;11.80;1.00
15003;DHT22;7597;53.590;10.020;2022-11-11T14:13:35;11.80;1.00
15003;DHT22;7597;53.590;10.020;2022-11-11T14:16:01;11.80;1.00
15003;DHT22;7597;53.590;10.020;2022-11-11T14:18:37;11.80;1.00
15003;DHT22;7597;53.590;10.020;2022-11-11T14:21:03;11.80;1.00
15003;DHT22;7597;53.590;10.020;2022-11-11T14:23:35;11.80;1.00
15003;DHT22;7597;53.590;10.020;2022-11-11T14:26:21;11.80;1.00
15003;DHT22;7597;53.590;10.020;2022-11-11T14:28:57;11.80;1.00
15003;DHT22;7597;53.590;10.020;2022-11-11T14:31:36;11.70;1.00
15003;DHT22;7597;53.590;10.020;2022-11-11T14:36:59;11.70;1.00
15003;DHT22;7597;53.590;10.020;2022-11-11T14:39:35;11.70;1.00
15003;DHT22;7597;53.590;10.020;2022-11-11T14:42:01;11.70;1.00
15003;DHT22;7597;53.590;10.020;2022-11-11T14:44:39;11.70;1.00
15003;DHT22;7597;53.590;10.020;2022-11-11T14:47:24;11.70;1.00
15003;DHT22;7597;53.590;10.020;2022-11-11T14:49:51;11.70;1.00
15003;DHT22;7597;53.590;10.020;2022-11-11T14:52:34;11.70;1.00
15003;DHT22;7597;53.590;10.020;2022-11-11T14:55:18;11.70;1.00
15003;DHT22;7597;53.590;10.020;2022-11-11T14:57:46;11.70;1.00
15003;DHT22;7597;53.590;10.020;2022-11-11T15:00:14;11.70;1.00
15003;DHT22;7597;53.590;10.020;2022-11-11T15:02:50;11.70;1.00
15003;DHT22;7597;53.590;10.020;2022-11-11T15:05:24;11.70;1.00
15003;DHT22;7597;53.590;10.020;2022-11-11T15:08:02;11.70;1.00
15003;DHT22;7597;53.590;10.020;2022-11-11T15:10:37;11.70;1.00
15003;DHT22;7597;53.590;10.020;2022-11-11T15:13:11;11.70;1.00
15003;DHT22;7597;53.590;10.020;2022-11-11T15:16:10;11.70;1.00
15003;DHT22;7597;53.590;10.020;2022-11-11T15:18:24;11.70;1.00
15003;DHT22;7597;53.590;10.020;2022-11-11T15:21:12;11.70;1.00
15003;DHT22;7597;53.590;10.020;2022-11-11T15:23:42;11.70;1.00
15003;DHT22;7597;53.590;10.020;2022-11-11T15:31:50;11.60;1.00
15003;DHT22;7597;53.590;10.020;2022-11-11T15:34:25;11.60;1.00
15003;DHT22;7597;53.590;10.020;2022-11-11T15:37:05;11.60;1.00
15003;DHT22;7597;53.590;10.020;2022-11-11T15:39:48;11.60;1.00
15003;DHT22;7597;53.590;10.020;2022-11-11T15:42:34;11.60;1.00
15003;DHT22;7597;53.590;10.020;2022-11-11T15:45:00;11.60;1.00
15003;DHT22;7597;53.590;10.020;2022-11-11T15:47:26;11.60;1.00
15003;DHT22;7597;53.590;10.020;2022-11-11T15:49:54;11.60;1.00
15003;DHT22;7597;53.590;10.020;2022-11-11T15:52:27;11.60;1.00
15003;DHT22;7597;53.590;10.020;2022-11-11T15:54:53;11.60;1.00
15003;DHT22;7597;53.590;10.020;2022-11-11T15:57:23;11.60;1.00
15003;DHT22;7597;53.590;10.020;2022-11-11T15:59:49;11.60;1.00
15003;DHT22;7597;53.590;10.020;2022-11-11T16:02:18;11.60;1.00
15003;DHT22;7597;53.590;10.020;2022-11-11T16:04:57;11.60;1.00
15003;DHT22;7597;53.590;10.020;2022-11-11T16:07:24;11.60;1.00
15003;DHT22;7597;53.590;10.020;2022-11-11T16:09:50;11.60;1.00
15003;DHT22;7597;53.590;10.020;2022-11-11T16:12:26;11.50;1.00
15003;DHT22;7597;53.590;10.020;2022-11-11T16:14:54;11.50;1.00
15003;DHT22;7597;53.590;10.020;2022-11-11T16:17:21;11.50;1.00
15003;DHT22;7597;53.590;10.020;2022-11-11T16:19:47;11.50;1.00
15003;DHT22;7597;53.590;10.020;2022-11-11T16:22:18;11.50;1.00
15003;DHT22;7597;53.590;10.020;2022-11-11T16:24:44;11.50;1.00
15003;DHT22;7597;53.590;10.020;2022-11-11T16:27:16;11.50;1.00
15003;DHT22;7597;53.590;10.020;2022-11-11T16:29:42;11.50;1.00
15003;DHT22;7597;53.590;10.020;2022-11-11T16:32:17;11.50;1.00
15003;DHT22;7597;53.590;10.020;2022-11-11T16:34:41;11.60;1.00